createdAt,value
2023-12-17T00:00:05.149Z,-0.46
2023-12-17T00:02:32.067Z,-0.40
2023-12-17T00:04:59.405Z,-0.50
2023-12-17T00:07:26.212Z,-0.57
2023-12-17T00:09:53.353Z,-0.53
2023-12-17T00:12:20.324Z,-0.53
2023-12-17T00:14:47.266Z,-0.33
2023-12-17T00:17:14.657Z,-0.43
2023-12-17T00:19:42.519Z,-0.39
2023-12-17T00:22:09.889Z,-0.41
2023-12-17T00:24:36.793Z,-0.14
2023-12-17T00:27:04.882Z,-0.19
2023-12-17T00:29:31.795Z,-0.28
2023-12-17T00:32:01.146Z,-0.32
2023-12-17T00:34:29.034Z,-0.36
2023-12-17T00:36:56.031Z,-0.29
2023-12-17T00:39:22.915Z,-0.19
2023-12-17T00:42:06.694Z,-0.38
2023-12-17T00:44:33.872Z,-0.30
2023-12-17T00:47:01.096Z,-0.12
2023-12-17T00:49:28.209Z,-0.06
2023-12-17T00:51:55.099Z,-0.43
2023-12-17T00:54:23.253Z,-0.48
2023-12-17T00:56:50.235Z,-0.46
2023-12-17T00:59:17.432Z,-0.49
2023-12-17T01:01:44.585Z,-0.39
2023-12-17T01:04:11.324Z,-0.36
2023-12-17T01:06:38.182Z,-0.35
2023-12-17T01:09:05.128Z,-0.43
2023-12-17T01:11:33.245Z,-0.47
2023-12-17T01:17:55.418Z,-0.67
2023-12-17T01:20:22.305Z,-0.55
2023-12-17T01:22:49.275Z,-0.59
2023-12-17T01:25:16.189Z,-0.59
2023-12-17T01:27:43.054Z,-0.58
2023-12-17T01:30:14.890Z,-0.55
2023-12-17T01:32:42.437Z,-0.52
2023-12-17T01:35:09.240Z,-0.57
2023-12-17T01:37:36.280Z,-0.66
2023-12-17T01:40:03.354Z,-0.71
2023-12-17T01:42:31.758Z,-0.64
2023-12-17T01:44:58.989Z,-0.56
2023-12-17T01:47:26.114Z,-0.57
2023-12-17T01:49:53.131Z,-0.54
2023-12-17T01:52:20.002Z,-0.50
2023-12-17T01:54:48.349Z,-0.48
2023-12-17T01:57:15.281Z,-0.60
2023-12-17T01:59:42.063Z,-0.66
2023-12-17T02:02:11.626Z,-0.66
2023-12-17T02:04:39.486Z,-0.66
2023-12-17T02:07:07.510Z,-0.54
2023-12-17T02:09:34.349Z,-0.57
2023-12-17T02:12:01.322Z,-0.56
2023-12-17T02:14:28.543Z,-0.42
2023-12-17T02:16:55.313Z,-0.33
2023-12-17T02:19:22.365Z,-0.24
2023-12-17T02:25:43.773Z,-0.02
2023-12-17T02:28:10.636Z,-0.06
2023-12-17T02:30:38.664Z,0.05
2023-12-17T02:36:59.624Z,0.54
2023-12-17T02:39:26.696Z,0.97
2023-12-17T02:41:53.561Z,0.84
2023-12-17T02:44:21.277Z,0.93
2023-12-17T02:46:49.277Z,0.73
2023-12-17T02:49:16.798Z,0.79
2023-12-17T02:51:44.434Z,1.40
2023-12-17T02:54:14.762Z,1.98
2023-12-17T02:56:42.127Z,1.45
2023-12-17T02:59:15.916Z,0.96
2023-12-17T03:01:44.570Z,0.83
2023-12-17T03:04:14.867Z,0.72
2023-12-17T03:06:44.465Z,0.67
2023-12-17T03:09:11.646Z,0.84
2023-12-17T03:11:39.903Z,0.66
2023-12-17T03:14:09.609Z,0.63
2023-12-17T03:16:36.461Z,0.60
2023-12-17T03:19:03.696Z,0.91
2023-12-17T03:21:41.308Z,0.70
2023-12-17T03:24:08.381Z,0.56
2023-12-17T03:26:40.503Z,0.57
2023-12-17T03:29:21.702Z,0.50
2023-12-17T03:31:48.754Z,0.46
2023-12-17T03:34:15.973Z,0.69
2023-12-17T03:36:42.776Z,0.52
2023-12-17T03:39:10.471Z,0.75
2023-12-17T03:41:37.445Z,0.85
2023-12-17T03:44:05.369Z,0.79
2023-12-17T03:46:32.198Z,0.65
2023-12-17T03:49:00.174Z,0.69
2023-12-17T03:51:27.434Z,0.67
2023-12-17T03:53:55.915Z,0.76
2023-12-17T03:56:22.724Z,1.34
2023-12-17T03:58:50.701Z,1.16
2023-12-17T04:01:17.909Z,0.84
2023-12-17T04:03:45.130Z,0.80
2023-12-17T04:06:13.689Z,0.83
2023-12-17T04:08:43.554Z,1.74
2023-12-17T04:11:10.788Z,1.79
2023-12-17T04:13:58.874Z,1.67
2023-12-17T04:17:03.340Z,1.79
2023-12-17T04:19:30.379Z,2.29
2023-12-17T04:21:58.874Z,1.76
2023-12-17T04:24:25.720Z,1.98
2023-12-17T04:26:52.631Z,2.89
2023-12-17T04:29:20.670Z,3.48
2023-12-17T04:31:48.383Z,3.93
2023-12-17T04:34:15.651Z,4.04
2023-12-17T04:36:43.877Z,2.34
2023-12-17T04:39:10.866Z,2.00
2023-12-17T04:41:38.150Z,2.67
2023-12-17T04:44:04.967Z,3.52
2023-12-17T04:46:31.750Z,3.88
2023-12-17T04:49:35.549Z,2.95
2023-12-17T04:52:02.538Z,2.42
2023-12-17T04:54:29.795Z,2.42
2023-12-17T04:56:56.709Z,3.49
2023-12-17T04:59:23.896Z,3.97
2023-12-17T05:01:51.859Z,4.33
2023-12-17T05:04:20.132Z,4.67
2023-12-17T05:06:48.095Z,4.21
2023-12-17T05:09:16.034Z,3.04
2023-12-17T05:11:43.208Z,3.80
2023-12-17T05:14:10.279Z,4.43
2023-12-17T05:16:37.163Z,4.81
2023-12-17T05:19:05.405Z,4.66
2023-12-17T05:21:32.450Z,3.31
2023-12-17T05:23:59.273Z,3.51
2023-12-17T05:26:26.196Z,3.39
2023-12-17T05:28:52.974Z,3.22
2023-12-17T05:31:20.820Z,3.07
2023-12-17T05:33:49.185Z,3.15
2023-12-17T05:36:17.578Z,3.46
2023-12-17T05:38:47.373Z,2.78
2023-12-17T05:41:14.952Z,2.75
2023-12-17T05:43:41.756Z,3.77
2023-12-17T05:46:08.995Z,4.11
2023-12-17T05:48:37.133Z,4.26
2023-12-17T05:51:08.319Z,3.63
2023-12-17T05:53:41.440Z,4.44
2023-12-17T05:56:14.310Z,3.67
2023-12-17T05:58:41.248Z,2.85
2023-12-17T06:01:10.323Z,2.63
2023-12-17T06:03:38.902Z,2.40
2023-12-17T06:06:07.866Z,1.98
2023-12-17T06:08:35.561Z,1.83
2023-12-17T06:11:02.418Z,1.70
2023-12-17T06:13:29.432Z,1.54
2023-12-17T06:15:56.433Z,1.39
2023-12-17T06:18:23.495Z,1.62
2023-12-17T06:20:50.396Z,1.58
2023-12-17T06:23:17.374Z,1.90
2023-12-17T06:25:45.484Z,2.39
2023-12-17T06:28:12.226Z,2.79
2023-12-17T06:30:40.569Z,3.48
2023-12-17T06:33:07.480Z,3.52
2023-12-17T06:35:34.420Z,3.37
2023-12-17T06:38:01.391Z,3.73
2023-12-17T06:40:29.467Z,4.37
2023-12-17T06:42:56.330Z,4.35
2023-12-17T06:45:24.389Z,3.27
2023-12-17T06:47:51.325Z,3.22
2023-12-17T06:50:18.283Z,3.41
2023-12-17T06:52:45.522Z,3.33
2023-12-17T06:55:12.336Z,3.60
2023-12-17T06:57:39.715Z,3.94
2023-12-17T07:00:09.249Z,4.13
2023-12-17T07:02:37.702Z,4.02
2023-12-17T07:05:04.839Z,2.97
2023-12-17T07:07:31.987Z,3.02
2023-12-17T07:09:59.843Z,3.31
2023-12-17T07:12:26.743Z,2.66
2023-12-17T07:14:53.798Z,2.22
2023-12-17T07:17:20.713Z,2.49
2023-12-17T07:23:41.043Z,3.64
2023-12-17T07:26:07.804Z,2.77
2023-12-17T07:28:35.005Z,2.63
2023-12-17T07:31:02.258Z,2.43
2023-12-17T07:33:29.256Z,2.07
2023-12-17T07:35:56.137Z,1.91
2023-12-17T07:38:22.955Z,2.63
2023-12-17T07:40:49.997Z,3.31
2023-12-17T07:43:17.128Z,3.37
2023-12-17T07:45:43.943Z,3.82
2023-12-17T07:48:10.971Z,3.64
2023-12-17T07:50:37.996Z,4.17
2023-12-17T07:53:04.887Z,4.33
2023-12-17T07:55:31.662Z,4.53
2023-12-17T07:57:58.515Z,3.97
2023-12-17T08:00:25.372Z,3.45
2023-12-17T08:02:52.663Z,4.14
2023-12-17T08:05:20.563Z,3.35
2023-12-17T08:07:47.454Z,3.02
2023-12-17T08:10:14.247Z,3.60
2023-12-17T08:12:41.598Z,3.33
2023-12-17T08:15:10.075Z,3.26
2023-12-17T08:17:39.056Z,3.29
2023-12-17T08:20:07.258Z,2.67
2023-12-17T08:22:34.054Z,2.73
2023-12-17T08:25:01.938Z,3.30
2023-12-17T08:27:28.906Z,3.51
2023-12-17T08:29:56.101Z,4.13
2023-12-17T08:32:23.393Z,3.28
2023-12-17T08:34:50.307Z,4.14
2023-12-17T08:37:18.444Z,4.37
2023-12-17T08:39:45.269Z,4.01
2023-12-17T08:42:12.449Z,4.24
2023-12-17T08:44:40.429Z,4.28
2023-12-17T08:47:07.392Z,3.97
2023-12-17T08:49:34.823Z,3.42
2023-12-17T08:52:01.841Z,4.14
2023-12-17T08:54:28.794Z,4.01
2023-12-17T08:56:55.653Z,4.61
2023-12-17T08:59:33.261Z,3.86
2023-12-17T09:02:03.071Z,3.83
2023-12-17T09:04:31.301Z,4.11
2023-12-17T09:06:59.640Z,4.88
2023-12-17T09:09:26.504Z,4.55
2023-12-17T09:12:20.181Z,4.44
2023-12-17T09:14:47.116Z,4.36
2023-12-17T09:17:13.958Z,4.60
2023-12-17T09:19:40.890Z,4.78
2023-12-17T09:22:10.026Z,5.26
2023-12-17T09:24:36.995Z,5.25
2023-12-17T09:27:03.934Z,4.53
2023-12-17T09:29:31.874Z,4.07
2023-12-17T09:32:00.524Z,4.04
2023-12-17T09:34:39.980Z,4.41
2023-12-17T09:37:07.907Z,4.73
2023-12-17T09:39:39.918Z,5.30
2023-12-17T09:42:27.169Z,5.50
2023-12-17T09:44:56.895Z,4.47
2023-12-17T09:47:25.460Z,4.26
2023-12-17T09:49:52.476Z,3.54
2023-12-17T09:52:19.935Z,3.98
2023-12-17T09:54:49.564Z,3.69
2023-12-17T09:57:18.062Z,4.50
2023-12-17T09:59:45.407Z,4.93
2023-12-17T10:02:15.772Z,4.86
2023-12-17T10:04:48.403Z,5.10
2023-12-17T10:07:19.534Z,5.09
2023-12-17T10:09:46.364Z,3.60
2023-12-17T10:12:15.532Z,4.14
2023-12-17T10:14:43.508Z,3.36
2023-12-17T10:17:12.744Z,3.22
2023-12-17T10:19:39.762Z,3.76
2023-12-17T10:22:07.380Z,3.89
2023-12-17T10:24:37.690Z,4.09
2023-12-17T10:27:19.046Z,4.48
2023-12-17T10:29:50.281Z,4.40
2023-12-17T10:32:20.636Z,4.35
2023-12-17T10:34:49.902Z,4.38
2023-12-17T10:37:21.569Z,3.49
2023-12-17T10:39:48.816Z,3.46
2023-12-17T10:42:20.255Z,3.36
2023-12-17T10:44:47.542Z,3.64
2023-12-17T10:47:16.462Z,3.98
2023-12-17T10:49:44.244Z,4.73
2023-12-17T10:52:11.036Z,4.82
2023-12-17T10:54:41.158Z,3.88
2023-12-17T10:57:10.450Z,4.02
2023-12-17T10:59:40.978Z,4.51
2023-12-17T11:02:08.865Z,4.08
2023-12-17T11:04:37.174Z,4.22
2023-12-17T11:07:04.074Z,4.79
2023-12-17T11:09:30.896Z,4.88
2023-12-17T11:11:57.890Z,4.17
2023-12-17T11:14:39.383Z,4.97
2023-12-17T11:17:15.086Z,2.86
2023-12-17T11:19:59.010Z,2.50
2023-12-17T11:22:25.991Z,3.26
2023-12-17T11:24:59.729Z,3.78
2023-12-17T11:27:26.952Z,3.93
2023-12-17T11:29:56.422Z,3.82
2023-12-17T11:32:35.112Z,4.44
2023-12-17T11:35:01.913Z,4.68
2023-12-17T11:37:29.372Z,4.69
2023-12-17T11:39:56.131Z,3.89
2023-12-17T11:42:23.023Z,3.29
2023-12-17T11:44:51.084Z,2.73
2023-12-17T11:47:25.189Z,3.62
2023-12-17T11:49:52.080Z,2.72
2023-12-17T11:52:18.871Z,3.17
2023-12-17T11:54:45.696Z,3.28
2023-12-17T11:57:30.754Z,2.45
2023-12-17T11:59:58.070Z,3.24
2023-12-17T12:02:25.828Z,3.10
2023-12-17T12:04:53.681Z,2.96
2023-12-17T12:07:21.574Z,3.55
2023-12-17T12:09:49.322Z,4.07
2023-12-17T12:12:25.139Z,4.47
2023-12-17T12:14:52.296Z,4.31
2023-12-17T12:17:37.373Z,5.02
2023-12-17T12:20:08.935Z,5.52
2023-12-17T12:22:45.366Z,4.85
2023-12-17T12:25:18.945Z,5.22
2023-12-17T12:28:23.534Z,4.97
2023-12-17T12:30:51.563Z,4.57
2023-12-17T12:33:18.902Z,5.33
2023-12-17T12:35:46.616Z,5.47
2023-12-17T12:38:23.701Z,5.10
2023-12-17T12:40:51.255Z,5.67
2023-12-17T12:43:18.318Z,5.58
2023-12-17T12:45:52.444Z,6.00
2023-12-17T12:48:26.121Z,5.18
2023-12-17T12:50:53.190Z,5.76
2023-12-17T12:53:26.041Z,5.50
2023-12-17T12:55:54.129Z,5.90
2023-12-17T12:58:21.067Z,5.66
2023-12-17T13:00:48.746Z,5.59
2023-12-17T13:03:16.453Z,5.79
2023-12-17T13:05:43.808Z,6.17
2023-12-17T13:08:10.777Z,5.93
2023-12-17T13:10:37.615Z,5.56
2023-12-17T13:13:06.194Z,5.93
2023-12-17T13:15:35.383Z,6.28
2023-12-17T13:18:04.537Z,5.61
2023-12-17T13:20:58.542Z,5.72
2023-12-17T13:23:25.817Z,3.64
2023-12-17T13:25:53.392Z,3.67
2023-12-17T13:28:21.096Z,4.45
2023-12-17T13:30:48.173Z,4.23
2023-12-17T13:33:17.970Z,3.58
2023-12-17T13:35:45.160Z,3.70
2023-12-17T13:38:12.879Z,4.50
2023-12-17T13:40:41.320Z,4.93
2023-12-17T13:43:08.221Z,5.51
2023-12-17T13:45:35.149Z,5.47
2023-12-17T13:48:01.989Z,5.58
2023-12-17T13:50:29.060Z,6.00
2023-12-17T13:52:56.108Z,5.73
2023-12-17T13:55:23.016Z,5.97
2023-12-17T13:57:50.056Z,6.11
2023-12-17T14:00:17.940Z,5.38
2023-12-17T14:02:44.923Z,6.00
2023-12-17T14:05:14.339Z,5.91
2023-12-17T14:07:42.092Z,5.47
2023-12-17T14:10:09.106Z,5.40
2023-12-17T14:12:36.165Z,6.11
2023-12-17T14:15:03.363Z,5.64
2023-12-17T14:17:30.272Z,5.09
2023-12-17T14:19:57.121Z,5.52
2023-12-17T14:22:24.268Z,5.17
2023-12-17T14:24:52.349Z,5.33
2023-12-17T14:27:19.832Z,4.22
2023-12-17T14:29:47.398Z,3.24
2023-12-17T14:32:17.371Z,3.62
2023-12-17T14:34:59.297Z,3.88
2023-12-17T14:37:26.109Z,4.61
2023-12-17T14:39:52.929Z,4.78
2023-12-17T14:42:19.997Z,4.63
2023-12-17T14:44:49.659Z,5.16
2023-12-17T14:47:16.893Z,5.38
2023-12-17T14:49:44.299Z,5.70
2023-12-17T14:52:12.359Z,5.96
2023-12-17T14:54:39.498Z,5.49
2023-12-17T14:57:06.499Z,5.27
2023-12-17T14:59:33.879Z,4.23
2023-12-17T15:02:00.855Z,4.63
2023-12-17T15:04:28.056Z,5.37
2023-12-17T15:06:55.308Z,5.30
2023-12-17T15:09:23.099Z,5.63
2023-12-17T15:11:50.593Z,4.37
2023-12-17T15:14:20.119Z,4.31
2023-12-17T15:16:48.626Z,4.41
2023-12-17T15:19:17.951Z,4.02
2023-12-17T15:21:53.814Z,3.53
2023-12-17T15:24:20.872Z,2.37
2023-12-17T15:27:30.194Z,1.96
2023-12-17T15:29:57.241Z,2.59
2023-12-17T15:32:24.465Z,1.95
2023-12-17T15:34:58.270Z,2.04
2023-12-17T15:37:25.641Z,1.73
2023-12-17T15:39:52.717Z,1.93
2023-12-17T15:42:19.579Z,2.25
2023-12-17T15:44:46.774Z,2.54
2023-12-17T15:47:13.652Z,2.77
2023-12-17T15:49:40.584Z,3.01
2023-12-17T15:52:09.020Z,3.78
2023-12-17T15:54:35.839Z,3.75
2023-12-17T15:57:02.968Z,3.89
2023-12-17T15:59:30.413Z,4.54
2023-12-17T16:02:01.550Z,4.90
2023-12-17T16:04:28.432Z,4.78
2023-12-17T16:06:55.264Z,4.24
2023-12-17T16:09:23.904Z,3.85
2023-12-17T16:11:53.759Z,3.20
2023-12-17T16:14:20.640Z,3.40
2023-12-17T16:16:48.621Z,3.59
2023-12-17T16:19:27.807Z,3.16
2023-12-17T16:21:55.549Z,3.49
2023-12-17T16:24:22.437Z,3.48
2023-12-17T16:26:50.630Z,3.91
2023-12-17T16:29:17.517Z,2.74
2023-12-17T16:31:46.364Z,2.47
2023-12-17T16:34:13.548Z,2.66
2023-12-17T16:36:41.690Z,2.61
2023-12-17T16:39:08.773Z,2.39
2023-12-17T16:41:36.252Z,2.52
2023-12-17T16:44:05.981Z,3.39
2023-12-17T16:46:33.136Z,3.31
2023-12-17T16:52:28.241Z,1.65
2023-12-17T16:54:56.125Z,1.62
2023-12-17T16:57:23.016Z,1.44
2023-12-17T16:59:49.963Z,1.28
2023-12-17T17:02:16.828Z,1.74
2023-12-17T17:04:44.065Z,1.21
2023-12-17T17:07:10.866Z,1.74
2023-12-17T17:09:38.226Z,2.01
2023-12-17T17:12:05.348Z,2.91
2023-12-17T17:14:32.216Z,3.11
2023-12-17T17:16:59.139Z,3.41
2023-12-17T17:19:26.004Z,3.88
2023-12-17T17:21:56.013Z,4.15
2023-12-17T17:24:22.946Z,3.78
2023-12-17T17:26:49.800Z,3.80
2023-12-17T17:29:16.939Z,3.66
2023-12-17T17:32:03.814Z,3.92
2023-12-17T17:34:49.920Z,4.33
2023-12-17T17:37:36.281Z,3.60
2023-12-17T17:40:04.901Z,3.53
2023-12-17T17:42:31.813Z,3.95
2023-12-17T17:44:58.660Z,4.10
2023-12-17T17:47:25.532Z,3.06
2023-12-17T17:49:52.403Z,2.25
2023-12-17T17:52:19.340Z,1.91
2023-12-17T17:54:49.782Z,1.62
2023-12-17T17:57:17.879Z,1.95
2023-12-17T17:59:45.095Z,2.29
2023-12-17T18:02:12.279Z,3.02
2023-12-17T18:04:39.482Z,3.66
2023-12-17T18:07:06.321Z,3.70
2023-12-17T18:09:34.079Z,3.65
2023-12-17T18:12:01.178Z,3.75
2023-12-17T18:14:28.005Z,4.28
2023-12-17T18:16:54.841Z,4.59
2023-12-17T18:19:21.742Z,4.39
2023-12-17T18:21:48.517Z,3.97
2023-12-17T18:24:15.365Z,2.90
2023-12-17T18:26:43.877Z,1.94
2023-12-17T18:29:11.217Z,1.53
2023-12-17T18:31:38.073Z,1.86
2023-12-17T18:34:04.956Z,2.13
2023-12-17T18:36:32.288Z,2.23
2023-12-17T18:38:59.154Z,2.03
2023-12-17T18:41:26.513Z,2.20
2023-12-17T18:43:53.269Z,1.55
2023-12-17T18:46:21.034Z,1.43
2023-12-17T18:48:48.954Z,2.40
2023-12-17T18:51:17.023Z,2.53
2023-12-17T18:53:44.104Z,3.10
2023-12-17T18:56:11.518Z,3.30
2023-12-17T18:58:38.689Z,2.80
2023-12-17T19:01:05.775Z,2.82
2023-12-17T19:03:32.712Z,3.54
2023-12-17T19:05:59.568Z,3.96
2023-12-17T19:08:26.347Z,3.95
2023-12-17T19:10:54.040Z,4.27
2023-12-17T19:13:21.213Z,4.59
2023-12-17T19:15:48.151Z,4.41
2023-12-17T19:18:16.549Z,3.86
2023-12-17T19:20:43.667Z,4.35
2023-12-17T19:23:10.957Z,3.98
2023-12-17T19:25:37.831Z,3.00
2023-12-17T19:28:04.960Z,3.75
2023-12-17T19:30:33.225Z,4.02
2023-12-17T19:33:00.259Z,4.07
2023-12-17T19:35:27.537Z,4.03
2023-12-17T19:37:54.657Z,4.00
2023-12-17T19:40:21.563Z,3.34
2023-12-17T19:42:48.415Z,3.66
2023-12-17T19:45:15.805Z,4.22
2023-12-17T19:47:42.774Z,4.34
2023-12-17T19:50:10.203Z,4.40
2023-12-17T19:52:38.115Z,4.47
2023-12-17T19:55:07.258Z,4.24
2023-12-17T19:57:34.120Z,4.74
2023-12-17T20:00:01.167Z,3.70
2023-12-17T20:02:28.075Z,3.73
2023-12-17T20:04:55.319Z,3.69
2023-12-17T20:07:22.227Z,4.04
2023-12-17T20:09:49.787Z,4.31
2023-12-17T20:12:16.703Z,3.56
2023-12-17T20:14:43.735Z,4.02
2023-12-17T20:17:10.508Z,3.59
2023-12-17T20:19:38.558Z,3.44
2023-12-17T20:22:05.514Z,3.99
2023-12-17T20:24:32.381Z,4.65
2023-12-17T20:26:59.328Z,4.56
2023-12-17T20:29:26.091Z,4.06
2023-12-17T20:32:11.591Z,3.76
2023-12-17T20:34:39.717Z,2.72
2023-12-17T20:37:06.563Z,3.57
2023-12-17T20:39:33.980Z,3.67
2023-12-17T20:42:00.822Z,2.23
2023-12-17T20:44:28.199Z,2.87
2023-12-17T20:46:55.497Z,3.70
2023-12-17T20:49:22.713Z,3.42
2023-12-17T20:51:49.594Z,3.20
2023-12-17T20:54:16.873Z,2.88
2023-12-17T20:56:43.916Z,2.83
2023-12-17T20:59:11.241Z,1.96
2023-12-17T21:01:38.060Z,2.44
2023-12-17T21:04:05.973Z,3.34
2023-12-17T21:06:32.889Z,3.91
2023-12-17T21:09:01.526Z,4.31
2023-12-17T21:11:29.401Z,4.40
2023-12-17T21:17:18.420Z,3.75
2023-12-17T21:19:46.732Z,3.97
2023-12-17T21:22:14.019Z,4.48
2023-12-17T21:24:41.039Z,4.18
2023-12-17T21:27:20.998Z,4.32
2023-12-17T21:29:48.078Z,4.50
2023-12-17T21:32:16.230Z,4.38
2023-12-17T21:34:44.119Z,4.52
2023-12-17T21:37:11.016Z,4.31
2023-12-17T21:39:38.160Z,4.70
2023-12-17T21:42:06.319Z,4.69
2023-12-17T21:44:33.486Z,5.08
2023-12-17T21:47:00.378Z,5.04
2023-12-17T21:49:28.111Z,3.09
2023-12-17T21:52:06.251Z,2.67
2023-12-17T21:54:34.608Z,2.26
2023-12-17T21:57:17.257Z,2.32
2023-12-17T21:59:46.957Z,1.94
2023-12-17T22:02:13.904Z,2.31
2023-12-17T22:04:46.737Z,2.56
2023-12-17T22:07:13.886Z,1.84
2023-12-17T22:09:40.889Z,2.15
2023-12-17T22:12:08.073Z,2.37
2023-12-17T22:14:35.301Z,2.53
2023-12-17T22:17:02.538Z,2.62
2023-12-17T22:19:29.877Z,2.52
2023-12-17T22:21:57.381Z,2.69
2023-12-17T22:24:24.314Z,3.40
2023-12-17T22:26:51.786Z,3.03
2023-12-17T22:29:19.719Z,1.97
2023-12-17T22:31:46.786Z,1.93
2023-12-17T22:34:13.845Z,1.92
2023-12-17T22:36:41.123Z,2.01
2023-12-17T22:39:09.194Z,1.91
2023-12-17T22:41:38.778Z,1.87
2023-12-17T22:44:08.405Z,2.44
2023-12-17T22:47:13.362Z,3.02
2023-12-17T22:49:40.488Z,3.47
2023-12-17T22:52:08.341Z,3.81
2023-12-17T22:54:35.965Z,4.07
2023-12-17T22:57:03.531Z,3.56
2023-12-17T22:59:33.968Z,3.04
2023-12-17T23:02:00.788Z,3.49
2023-12-17T23:04:28.781Z,3.08
2023-12-17T23:06:56.231Z,3.19
2023-12-17T23:09:23.630Z,3.53
2023-12-17T23:11:51.607Z,4.39
2023-12-17T23:14:18.722Z,4.25
2023-12-17T23:16:45.636Z,4.67
2023-12-17T23:19:13.136Z,4.97
2023-12-17T23:21:40.026Z,4.83
2023-12-17T23:24:10.015Z,4.75
2023-12-17T23:26:49.319Z,4.63
2023-12-17T23:29:16.343Z,4.76
2023-12-17T23:31:44.936Z,4.35
2023-12-17T23:34:12.151Z,3.81
2023-12-17T23:36:39.555Z,3.93
2023-12-17T23:39:06.443Z,3.12
2023-12-17T23:41:33.348Z,3.67
2023-12-17T23:44:00.202Z,3.97
2023-12-17T23:46:27.012Z,4.09
2023-12-17T23:48:54.924Z,4.31
2023-12-17T23:51:22.156Z,4.43
2023-12-17T23:53:48.975Z,2.88
2023-12-17T23:56:18.554Z,3.66
2023-12-17T23:58:45.837Z,3.94
